sensor_id;sensor_type;location;lat;lon;timestamp;temperature;humidity
53272;DHT22;39160;48.580;7.756;2022-07-19T00:01:34;28.50;44.30
53272;DHT22;39160;48.580;7.756;2022-07-19T00:06:25;28.50;44.30
53272;DHT22;39160;48.580;7.756;2022-07-19T00:11:15;28.30;44.50
53272;DHT22;39160;48.580;7.756;2022-07-19T00:16:06;28.10;44.50
53272;DHT22;39160;48.580;7.756;2022-07-19T00:20:57;27.80;45.00
53272;DHT22;39160;48.580;7.756;2022-07-19T00:25:47;27.70;44.80
53272;DHT22;39160;48.580;7.756;2022-07-19T00:30:38;27.60;45.00
53272;DHT22;39160;48.580;7.756;2022-07-19T00:35:29;27.60;45.10
53272;DHT22;39160;48.580;7.756;2022-07-19T00:40:23;27.80;45.00
53272;DHT22;39160;48.580;7.756;2022-07-19T00:45:14;27.60;45.10
53272;DHT22;39160;48.580;7.756;2022-07-19T00:50:04;27.60;45.30
53272;DHT22;39160;48.580;7.756;2022-07-19T00:54:56;27.50;45.40
53272;DHT22;39160;48.580;7.756;2022-07-19T00:59:47;27.40;45.60
53272;DHT22;39160;48.580;7.756;2022-07-19T01:04:39;27.40;45.60
53272;DHT22;39160;48.580;7.756;2022-07-19T01:09:30;27.30;45.60
53272;DHT22;39160;48.580;7.756;2022-07-19T01:14:20;27.10;45.80
53272;DHT22;39160;48.580;7.756;2022-07-19T01:19:12;26.90;46.00
53272;DHT22;39160;48.580;7.756;2022-07-19T01:24:04;27.00;46.10
53272;DHT22;39160;48.580;7.756;2022-07-19T01:28:54;26.80;46.20
53272;DHT22;39160;48.580;7.756;2022-07-19T01:33:46;26.90;46.30
53272;DHT22;39160;48.580;7.756;2022-07-19T01:38:38;26.90;46.40
53272;DHT22;39160;48.580;7.756;2022-07-19T01:43:29;26.90;46.50
53272;DHT22;39160;48.580;7.756;2022-07-19T01:48:20;26.70;47.00
53272;DHT22;39160;48.580;7.756;2022-07-19T01:53:11;26.70;47.00
53272;DHT22;39160;48.580;7.756;2022-07-19T01:58:02;26.70;46.90
53272;DHT22;39160;48.580;7.756;2022-07-19T02:02:52;26.70;46.90
53272;DHT22;39160;48.580;7.756;2022-07-19T02:07:43;26.70;46.90
53272;DHT22;39160;48.580;7.756;2022-07-19T02:12:34;26.70;47.00
53272;DHT22;39160;48.580;7.756;2022-07-19T02:17:25;26.60;47.10
53272;DHT22;39160;48.580;7.756;2022-07-19T02:22:15;26.50;47.90
53272;DHT22;39160;48.580;7.756;2022-07-19T02:27:06;26.40;47.40
53272;DHT22;39160;48.580;7.756;2022-07-19T02:31:56;26.30;47.70
53272;DHT22;39160;48.580;7.756;2022-07-19T02:36:47;26.30;47.80
53272;DHT22;39160;48.580;7.756;2022-07-19T02:41:38;26.30;47.90
53272;DHT22;39160;48.580;7.756;2022-07-19T02:46:28;26.20;48.10
53272;DHT22;39160;48.580;7.756;2022-07-19T02:51:19;25.90;48.60
53272;DHT22;39160;48.580;7.756;2022-07-19T02:56:10;25.80;48.80
53272;DHT22;39160;48.580;7.756;2022-07-19T03:01:00;25.70;49.20
53272;DHT22;39160;48.580;7.756;2022-07-19T03:05:51;25.60;49.30
53272;DHT22;39160;48.580;7.756;2022-07-19T03:10:42;25.50;49.40
53272;DHT22;39160;48.580;7.756;2022-07-19T03:15:33;25.60;49.50
53272;DHT22;39160;48.580;7.756;2022-07-19T03:20:24;25.60;49.50
53272;DHT22;39160;48.580;7.756;2022-07-19T03:25:14;25.70;49.50
53272;DHT22;39160;48.580;7.756;2022-07-19T03:30:06;25.70;49.50
53272;DHT22;39160;48.580;7.756;2022-07-19T03:34:57;25.40;49.90
53272;DHT22;39160;48.580;7.756;2022-07-19T03:39:48;25.40;50.00
53272;DHT22;39160;48.580;7.756;2022-07-19T03:44:38;25.30;50.10
53272;DHT22;39160;48.580;7.756;2022-07-19T03:49:29;25.20;51.10
53272;DHT22;39160;48.580;7.756;2022-07-19T03:54:20;25.10;50.40
53272;DHT22;39160;48.580;7.756;2022-07-19T03:59:10;24.90;50.60
53272;DHT22;39160;48.580;7.756;2022-07-19T04:04:01;24.80;50.50
53272;DHT22;39160;48.580;7.756;2022-07-19T04:08:51;24.70;50.70
53272;DHT22;39160;48.580;7.756;2022-07-19T04:13:42;24.80;50.60
53272;DHT22;39160;48.580;7.756;2022-07-19T04:18:33;24.90;50.60
53272;DHT22;39160;48.580;7.756;2022-07-19T04:23:24;24.80;50.60
53272;DHT22;39160;48.580;7.756;2022-07-19T04:28:14;24.80;50.70
53272;DHT22;39160;48.580;7.756;2022-07-19T04:33:05;24.90;50.60
53272;DHT22;39160;48.580;7.756;2022-07-19T04:37:55;24.80;50.80
53272;DHT22;39160;48.580;7.756;2022-07-19T04:42:46;24.90;50.70
53272;DHT22;39160;48.580;7.756;2022-07-19T04:47:37;24.90;50.70
53272;DHT22;39160;48.580;7.756;2022-07-19T04:52:27;25.00;50.70
53272;DHT22;39160;48.580;7.756;2022-07-19T04:57:18;25.00;50.70
53272;DHT22;39160;48.580;7.756;2022-07-19T05:02:08;25.00;50.80
53272;DHT22;39160;48.580;7.756;2022-07-19T05:06:59;25.10;50.70
53272;DHT22;39160;48.580;7.756;2022-07-19T05:11:50;25.20;50.60
53272;DHT22;39160;48.580;7.756;2022-07-19T05:16:41;25.10;50.70
53272;DHT22;39160;48.580;7.756;2022-07-19T05:21:32;25.20;50.70
53272;DHT22;39160;48.580;7.756;2022-07-19T05:26:23;25.10;50.80
53272;DHT22;39160;48.580;7.756;2022-07-19T05:31:13;25.20;50.80
53272;DHT22;39160;48.580;7.756;2022-07-19T05:36:04;25.10;50.90
53272;DHT22;39160;48.580;7.756;2022-07-19T05:40:55;25.10;50.80
53272;DHT22;39160;48.580;7.756;2022-07-19T05:45:45;25.10;50.80
53272;DHT22;39160;48.580;7.756;2022-07-19T05:50:36;25.30;50.80
53272;DHT22;39160;48.580;7.756;2022-07-19T05:55:27;25.30;50.80
53272;DHT22;39160;48.580;7.756;2022-07-19T06:00:17;25.30;51.00
53272;DHT22;39160;48.580;7.756;2022-07-19T06:05:08;25.10;51.50
53272;DHT22;39160;48.580;7.756;2022-07-19T06:09:59;25.30;51.20
53272;DHT22;39160;48.580;7.756;2022-07-19T06:14:49;25.20;51.30
53272;DHT22;39160;48.580;7.756;2022-07-19T06:19:40;25.20;52.10
53272;DHT22;39160;48.580;7.756;2022-07-19T06:24:30;25.20;51.50
53272;DHT22;39160;48.580;7.756;2022-07-19T06:29:21;25.30;51.50
53272;DHT22;39160;48.580;7.756;2022-07-19T06:34:12;25.50;51.40
53272;DHT22;39160;48.580;7.756;2022-07-19T06:39:02;25.50;51.60
53272;DHT22;39160;48.580;7.756;2022-07-19T06:43:53;25.70;51.70
53272;DHT22;39160;48.580;7.756;2022-07-19T06:48:44;25.70;51.70
53272;DHT22;39160;48.580;7.756;2022-07-19T06:53:35;25.60;52.00
53272;DHT22;39160;48.580;7.756;2022-07-19T06:58:26;25.80;52.10
53272;DHT22;39160;48.580;7.756;2022-07-19T07:03:17;25.90;51.90
53272;DHT22;39160;48.580;7.756;2022-07-19T07:08:08;26.00;51.90
53272;DHT22;39160;48.580;7.756;2022-07-19T07:12:59;26.10;51.80
53272;DHT22;39160;48.580;7.756;2022-07-19T07:17:50;26.20;51.80
53272;DHT22;39160;48.580;7.756;2022-07-19T07:22:40;26.30;51.70
53272;DHT22;39160;48.580;7.756;2022-07-19T07:27:31;26.30;51.70
53272;DHT22;39160;48.580;7.756;2022-07-19T07:32:22;26.50;51.50
53272;DHT22;39160;48.580;7.756;2022-07-19T07:37:13;26.50;51.60
53272;DHT22;39160;48.580;7.756;2022-07-19T07:42:04;26.70;51.50
53272;DHT22;39160;48.580;7.756;2022-07-19T07:46:54;26.90;51.30
53272;DHT22;39160;48.580;7.756;2022-07-19T07:51:45;27.00;51.30
53272;DHT22;39160;48.580;7.756;2022-07-19T07:56:36;27.00;51.20
53272;DHT22;39160;48.580;7.756;2022-07-19T08:01:27;27.10;51.30
53272;DHT22;39160;48.580;7.756;2022-07-19T08:06:20;27.30;51.20
53272;DHT22;39160;48.580;7.756;2022-07-19T08:11:11;27.40;50.90
53272;DHT22;39160;48.580;7.756;2022-07-19T08:16:01;27.60;50.80
53272;DHT22;39160;48.580;7.756;2022-07-19T08:20:52;27.80;50.50
53272;DHT22;39160;48.580;7.756;2022-07-19T08:25:42;27.90;50.40
53272;DHT22;39160;48.580;7.756;2022-07-19T08:30:36;28.00;50.20
53272;DHT22;39160;48.580;7.756;2022-07-19T08:35:27;28.10;50.50
53272;DHT22;39160;48.580;7.756;2022-07-19T08:40:17;28.20;50.60
53272;DHT22;39160;48.580;7.756;2022-07-19T08:45:10;28.40;50.50
53272;DHT22;39160;48.580;7.756;2022-07-19T08:50:03;28.50;50.60
53272;DHT22;39160;48.580;7.756;2022-07-19T08:54:55;28.50;50.50
53272;DHT22;39160;48.580;7.756;2022-07-19T08:59:47;28.50;50.50
53272;DHT22;39160;48.580;7.756;2022-07-19T09:04:37;28.70;50.40
53272;DHT22;39160;48.580;7.756;2022-07-19T09:09:30;28.80;50.20
53272;DHT22;39160;48.580;7.756;2022-07-19T09:14:33;28.80;50.00
53272;DHT22;39160;48.580;7.756;2022-07-19T09:19:25;29.00;49.70
53272;DHT22;39160;48.580;7.756;2022-07-19T09:24:16;29.20;49.60
53272;DHT22;39160;48.580;7.756;2022-07-19T09:29:17;29.30;49.30
53272;DHT22;39160;48.580;7.756;2022-07-19T09:34:08;29.50;49.10
53272;DHT22;39160;48.580;7.756;2022-07-19T09:38:59;29.60;48.90
53272;DHT22;39160;48.580;7.756;2022-07-19T09:43:56;29.70;48.70
53272;DHT22;39160;48.580;7.756;2022-07-19T09:48:47;30.10;48.40
53272;DHT22;39160;48.580;7.756;2022-07-19T09:53:38;30.10;48.40
53272;DHT22;39160;48.580;7.756;2022-07-19T09:58:29;30.10;48.40
53272;DHT22;39160;48.580;7.756;2022-07-19T10:03:20;30.20;48.20
53272;DHT22;39160;48.580;7.756;2022-07-19T10:08:10;30.30;47.80
53272;DHT22;39160;48.580;7.756;2022-07-19T10:13:01;30.60;47.50
53272;DHT22;39160;48.580;7.756;2022-07-19T10:22:49;30.70;47.10
53272;DHT22;39160;48.580;7.756;2022-07-19T10:27:42;31.00;46.40
53272;DHT22;39160;48.580;7.756;2022-07-19T10:32:33;31.00;45.70
53272;DHT22;39160;48.580;7.756;2022-07-19T10:37:39;31.10;45.00
53272;DHT22;39160;48.580;7.756;2022-07-19T10:42:30;31.20;44.40
53272;DHT22;39160;48.580;7.756;2022-07-19T10:57:45;31.50;43.90
53272;DHT22;39160;48.580;7.756;2022-07-19T11:02:36;31.60;43.70
53272;DHT22;39160;48.580;7.756;2022-07-19T11:07:26;31.80;43.80
53272;DHT22;39160;48.580;7.756;2022-07-19T11:12:25;32.00;43.80
53272;DHT22;39160;48.580;7.756;2022-07-19T11:17:16;32.00;43.90
53272;DHT22;39160;48.580;7.756;2022-07-19T11:22:09;31.90;44.20
53272;DHT22;39160;48.580;7.756;2022-07-19T11:27:02;32.00;43.90
53272;DHT22;39160;48.580;7.756;2022-07-19T11:31:53;32.20;43.40
53272;DHT22;39160;48.580;7.756;2022-07-19T11:36:43;32.30;43.30
53272;DHT22;39160;48.580;7.756;2022-07-19T11:41:34;32.50;43.10
53272;DHT22;39160;48.580;7.756;2022-07-19T11:46:30;32.40;43.20
53272;DHT22;39160;48.580;7.756;2022-07-19T11:51:21;32.50;43.90
53272;DHT22;39160;48.580;7.756;2022-07-19T11:56:22;32.60;43.20
53272;DHT22;39160;48.580;7.756;2022-07-19T12:01:13;32.70;43.10
53272;DHT22;39160;48.580;7.756;2022-07-19T12:06:06;32.80;42.90
53272;DHT22;39160;48.580;7.756;2022-07-19T12:10:57;33.00;42.80
53272;DHT22;39160;48.580;7.756;2022-07-19T12:15:54;33.10;42.60
53272;DHT22;39160;48.580;7.756;2022-07-19T12:21:13;33.50;42.50
53272;DHT22;39160;48.580;7.756;2022-07-19T12:26:03;34.00;42.20
53272;DHT22;39160;48.580;7.756;2022-07-19T12:31:05;34.50;42.10
53272;DHT22;39160;48.580;7.756;2022-07-19T12:35:56;34.70;42.30
53272;DHT22;39160;48.580;7.756;2022-07-19T12:40:47;35.20;42.30
53272;DHT22;39160;48.580;7.756;2022-07-19T12:45:40;35.50;42.00
53272;DHT22;39160;48.580;7.756;2022-07-19T12:50:40;36.00;42.00
53272;DHT22;39160;48.580;7.756;2022-07-19T12:55:33;36.70;41.90
53272;DHT22;39160;48.580;7.756;2022-07-19T13:00:25;37.50;41.20
53272;DHT22;39160;48.580;7.756;2022-07-19T13:05:17;38.20;40.10
53272;DHT22;39160;48.580;7.756;2022-07-19T13:10:08;38.90;40.00
53272;DHT22;39160;48.580;7.756;2022-07-19T13:14:59;39.60;38.10
53272;DHT22;39160;48.580;7.756;2022-07-19T13:19:50;40.40;36.90
53272;DHT22;39160;48.580;7.756;2022-07-19T13:24:41;41.10;36.40
53272;DHT22;39160;48.580;7.756;2022-07-19T13:29:32;41.60;34.70
53272;DHT22;39160;48.580;7.756;2022-07-19T13:34:24;42.70;34.10
53272;DHT22;39160;48.580;7.756;2022-07-19T13:39:14;43.30;33.20
53272;DHT22;39160;48.580;7.756;2022-07-19T13:44:06;43.90;32.80
53272;DHT22;39160;48.580;7.756;2022-07-19T13:48:57;43.60;32.50
53272;DHT22;39160;48.580;7.756;2022-07-19T13:53:47;43.50;32.30
53272;DHT22;39160;48.580;7.756;2022-07-19T13:58:38;43.80;32.00
53272;DHT22;39160;48.580;7.756;2022-07-19T14:03:29;44.20;31.70
53272;DHT22;39160;48.580;7.756;2022-07-19T14:08:19;44.60;31.50
53272;DHT22;39160;48.580;7.756;2022-07-19T14:13:10;45.30;31.10
53272;DHT22;39160;48.580;7.756;2022-07-19T14:18:03;45.30;30.90
53272;DHT22;39160;48.580;7.756;2022-07-19T14:22:53;45.60;30.50
53272;DHT22;39160;48.580;7.756;2022-07-19T14:27:44;46.00;30.30
53272;DHT22;39160;48.580;7.756;2022-07-19T14:32:35;45.10;30.20
53272;DHT22;39160;48.580;7.756;2022-07-19T14:37:26;45.90;29.90
53272;DHT22;39160;48.580;7.756;2022-07-19T14:42:16;46.30;29.70
53272;DHT22;39160;48.580;7.756;2022-07-19T14:47:07;46.40;29.50
53272;DHT22;39160;48.580;7.756;2022-07-19T14:52:00;46.50;29.30
53272;DHT22;39160;48.580;7.756;2022-07-19T14:56:52;45.80;29.20
53272;DHT22;39160;48.580;7.756;2022-07-19T15:01:42;45.30;29.20
53272;DHT22;39160;48.580;7.756;2022-07-19T15:06:33;46.10;28.90
53272;DHT22;39160;48.580;7.756;2022-07-19T15:11:24;46.30;28.70
53272;DHT22;39160;48.580;7.756;2022-07-19T15:16:14;46.20;28.60
53272;DHT22;39160;48.580;7.756;2022-07-19T15:21:06;45.80;28.40
53272;DHT22;39160;48.580;7.756;2022-07-19T15:25:57;45.80;28.40
53272;DHT22;39160;48.580;7.756;2022-07-19T15:30:48;45.50;28.30
53272;DHT22;39160;48.580;7.756;2022-07-19T15:35:38;46.00;28.10
53272;DHT22;39160;48.580;7.756;2022-07-19T15:40:29;45.60;28.00
53272;DHT22;39160;48.580;7.756;2022-07-19T15:45:20;45.90;27.90
53272;DHT22;39160;48.580;7.756;2022-07-19T15:50:13;46.50;27.70
53272;DHT22;39160;48.580;7.756;2022-07-19T15:55:05;47.00;27.40
53272;DHT22;39160;48.580;7.756;2022-07-19T15:59:56;46.60;27.50
53272;DHT22;39160;48.580;7.756;2022-07-19T16:04:46;47.40;27.30
53272;DHT22;39160;48.580;7.756;2022-07-19T16:09:37;47.20;27.10
53272;DHT22;39160;48.580;7.756;2022-07-19T16:14:28;47.60;27.00
53272;DHT22;39160;48.580;7.756;2022-07-19T16:19:18;47.40;26.90
53272;DHT22;39160;48.580;7.756;2022-07-19T16:24:09;47.90;27.30
53272;DHT22;39160;48.580;7.756;2022-07-19T16:28:59;48.30;26.50
53272;DHT22;39160;48.580;7.756;2022-07-19T16:33:50;49.70;26.40
53272;DHT22;39160;48.580;7.756;2022-07-19T16:38:41;49.50;26.20
53272;DHT22;39160;48.580;7.756;2022-07-19T16:43:32;50.60;26.10
53272;DHT22;39160;48.580;7.756;2022-07-19T16:48:23;50.60;26.00
53272;DHT22;39160;48.580;7.756;2022-07-19T16:53:13;49.70;26.10
53272;DHT22;39160;48.580;7.756;2022-07-19T16:58:04;51.10;26.00
53272;DHT22;39160;48.580;7.756;2022-07-19T17:02:55;50.00;26.00
53272;DHT22;39160;48.580;7.756;2022-07-19T17:07:46;50.50;25.90
53272;DHT22;39160;48.580;7.756;2022-07-19T17:12:36;50.50;25.90
53272;DHT22;39160;48.580;7.756;2022-07-19T17:17:32;49.70;26.00
53272;DHT22;39160;48.580;7.756;2022-07-19T17:22:22;49.60;25.90
53272;DHT22;39160;48.580;7.756;2022-07-19T17:27:13;49.60;25.90
53272;DHT22;39160;48.580;7.756;2022-07-19T17:32:04;48.40;25.90
53272;DHT22;39160;48.580;7.756;2022-07-19T17:36:55;48.20;26.00
53272;DHT22;39160;48.580;7.756;2022-07-19T17:41:46;48.70;25.90
53272;DHT22;39160;48.580;7.756;2022-07-19T17:46:36;48.80;25.90
53272;DHT22;39160;48.580;7.756;2022-07-19T17:51:27;48.80;26.00
53272;DHT22;39160;48.580;7.756;2022-07-19T17:56:19;49.00;25.90
53272;DHT22;39160;48.580;7.756;2022-07-19T18:01:10;47.70;26.00
53272;DHT22;39160;48.580;7.756;2022-07-19T18:06:00;44.30;27.10
53272;DHT22;39160;48.580;7.756;2022-07-19T18:10:51;41.80;27.80
53272;DHT22;39160;48.580;7.756;2022-07-19T18:15:42;40.50;28.10
53272;DHT22;39160;48.580;7.756;2022-07-19T18:20:32;40.20;28.40
53272;DHT22;39160;48.580;7.756;2022-07-19T18:25:23;39.60;28.40
53272;DHT22;39160;48.580;7.756;2022-07-19T18:30:14;39.10;28.70
53272;DHT22;39160;48.580;7.756;2022-07-19T18:35:05;38.80;29.00
53272;DHT22;39160;48.580;7.756;2022-07-19T18:39:56;38.50;29.10
53272;DHT22;39160;48.580;7.756;2022-07-19T18:44:47;38.40;29.40
53272;DHT22;39160;48.580;7.756;2022-07-19T18:49:39;38.20;29.70
53272;DHT22;39160;48.580;7.756;2022-07-19T18:54:30;38.00;29.80
53272;DHT22;39160;48.580;7.756;2022-07-19T18:59:20;37.90;30.00
53272;DHT22;39160;48.580;7.756;2022-07-19T19:04:11;37.60;30.20
53272;DHT22;39160;48.580;7.756;2022-07-19T19:09:03;37.40;30.40
53272;DHT22;39160;48.580;7.756;2022-07-19T19:13:54;37.30;30.70
53272;DHT22;39160;48.580;7.756;2022-07-19T19:18:44;37.10;31.10
53272;DHT22;39160;48.580;7.756;2022-07-19T19:23:35;36.80;31.50
53272;DHT22;39160;48.580;7.756;2022-07-19T19:28:26;36.50;32.20
53272;DHT22;39160;48.580;7.756;2022-07-19T19:33:17;36.40;32.60
53272;DHT22;39160;48.580;7.756;2022-07-19T19:38:10;36.20;33.20
53272;DHT22;39160;48.580;7.756;2022-07-19T19:43:00;35.90;33.60
53272;DHT22;39160;48.580;7.756;2022-07-19T19:47:52;35.70;34.30
53272;DHT22;39160;48.580;7.756;2022-07-19T19:52:43;35.60;34.70
53272;DHT22;39160;48.580;7.756;2022-07-19T19:57:34;35.50;35.20
53272;DHT22;39160;48.580;7.756;2022-07-19T20:02:25;35.40;35.40
53272;DHT22;39160;48.580;7.756;2022-07-19T20:07:16;34.70;36.70
53272;DHT22;39160;48.580;7.756;2022-07-19T20:12:07;34.30;37.70
53272;DHT22;39160;48.580;7.756;2022-07-19T20:16:57;34.10;38.40
53272;DHT22;39160;48.580;7.756;2022-07-19T20:21:48;33.90;38.80
53272;DHT22;39160;48.580;7.756;2022-07-19T20:26:39;33.90;39.30
53272;DHT22;39160;48.580;7.756;2022-07-19T20:31:30;33.80;39.50
53272;DHT22;39160;48.580;7.756;2022-07-19T20:36:20;33.70;39.60
53272;DHT22;39160;48.580;7.756;2022-07-19T20:41:12;33.60;40.70
53272;DHT22;39160;48.580;7.756;2022-07-19T20:46:02;33.60;40.20
53272;DHT22;39160;48.580;7.756;2022-07-19T20:50:53;33.50;40.30
53272;DHT22;39160;48.580;7.756;2022-07-19T20:55:43;33.50;40.70
53272;DHT22;39160;48.580;7.756;2022-07-19T21:00:34;33.40;40.80
53272;DHT22;39160;48.580;7.756;2022-07-19T21:05:25;33.40;41.00
53272;DHT22;39160;48.580;7.756;2022-07-19T21:10:16;33.30;41.10
53272;DHT22;39160;48.580;7.756;2022-07-19T21:15:07;33.30;41.00
53272;DHT22;39160;48.580;7.756;2022-07-19T21:19:58;33.20;41.20
53272;DHT22;39160;48.580;7.756;2022-07-19T21:24:48;33.20;41.50
53272;DHT22;39160;48.580;7.756;2022-07-19T21:29:39;33.10;41.70
53272;DHT22;39160;48.580;7.756;2022-07-19T21:34:30;33.00;41.60
53272;DHT22;39160;48.580;7.756;2022-07-19T21:39:20;32.90;41.60
53272;DHT22;39160;48.580;7.756;2022-07-19T21:44:11;33.00;41.70
53272;DHT22;39160;48.580;7.756;2022-07-19T21:49:02;32.80;41.90
53272;DHT22;39160;48.580;7.756;2022-07-19T21:53:53;32.70;42.00
53272;DHT22;39160;48.580;7.756;2022-07-19T21:58:43;32.50;42.10
53272;DHT22;39160;48.580;7.756;2022-07-19T22:03:34;32.50;42.40
53272;DHT22;39160;48.580;7.756;2022-07-19T22:08:26;32.50;42.50
53272;DHT22;39160;48.580;7.756;2022-07-19T22:13:17;32.50;42.60
53272;DHT22;39160;48.580;7.756;2022-07-19T22:18:07;32.40;42.60
53272;DHT22;39160;48.580;7.756;2022-07-19T22:22:58;32.40;42.80
53272;DHT22;39160;48.580;7.756;2022-07-19T22:27:49;32.30;42.80
53272;DHT22;39160;48.580;7.756;2022-07-19T22:32:39;32.20;42.80
53272;DHT22;39160;48.580;7.756;2022-07-19T22:37:30;32.20;43.00
53272;DHT22;39160;48.580;7.756;2022-07-19T22:42:21;32.20;43.00
53272;DHT22;39160;48.580;7.756;2022-07-19T22:47:11;32.00;43.20
53272;DHT22;39160;48.580;7.756;2022-07-19T22:52:02;32.00;43.40
53272;DHT22;39160;48.580;7.756;2022-07-19T22:56:53;32.00;43.70
53272;DHT22;39160;48.580;7.756;2022-07-19T23:01:44;31.90;43.90
53272;DHT22;39160;48.580;7.756;2022-07-19T23:06:34;31.70;44.00
53272;DHT22;39160;48.580;7.756;2022-07-19T23:11:25;31.70;44.30
53272;DHT22;39160;48.580;7.756;2022-07-19T23:16:17;31.70;44.50
53272;DHT22;39160;48.580;7.756;2022-07-19T23:21:07;31.60;44.60
53272;DHT22;39160;48.580;7.756;2022-07-19T23:25:58;31.50;44.90
53272;DHT22;39160;48.580;7.756;2022-07-19T23:30:49;31.40;44.90
53272;DHT22;39160;48.580;7.756;2022-07-19T23:35:39;31.40;45.20
53272;DHT22;39160;48.580;7.756;2022-07-19T23:40:31;31.30;45.30
53272;DHT22;39160;48.580;7.756;2022-07-19T23:45:22;31.10;45.70
53272;DHT22;39160;48.580;7.756;2022-07-19T23:50:13;31.10;45.90
53272;DHT22;39160;48.580;7.756;2022-07-19T23:55:04;30.90;46.10
53272;DHT22;39160;48.580;7.756;2022-07-19T23:59:54;30.90;46.50
